createdAt,value
2018-06-29T00:01:03.817Z,53.10
2018-06-29T00:03:32.351Z,53.00
2018-06-29T00:06:00.839Z,53.10
2018-06-29T00:08:29.249Z,54.00
2018-06-29T00:10:58.477Z,53.90
2018-06-29T00:13:28.417Z,54.30
2018-06-29T00:15:56.865Z,54.50
2018-06-29T00:18:25.355Z,54.50
2018-06-29T00:20:53.829Z,55.20
2018-06-29T00:23:22.236Z,55.30
2018-06-29T00:25:50.731Z,55.00
2018-06-29T00:28:19.117Z,55.00
2018-06-29T00:30:47.543Z,55.40
2018-06-29T00:33:16.024Z,55.20
2018-06-29T00:35:44.627Z,55.30
2018-06-29T00:38:17.494Z,56.00
2018-06-29T00:40:45.941Z,55.30
2018-06-29T00:43:14.381Z,56.40
2018-06-29T00:45:42.769Z,56.00
2018-06-29T00:48:11.186Z,55.70
2018-06-29T00:50:39.606Z,55.90
2018-06-29T00:53:08.153Z,55.50
2018-06-29T00:55:36.663Z,56.40
2018-06-29T00:58:05.533Z,57.80
2018-06-29T01:00:34.373Z,57.90
2018-06-29T01:03:02.852Z,57.00
2018-06-29T01:05:31.250Z,57.20
2018-06-29T01:08:00.305Z,58.80
2018-06-29T01:10:28.776Z,58.90
2018-06-29T01:12:57.213Z,58.90
2018-06-29T01:15:25.614Z,59.40
2018-06-29T01:17:54.039Z,59.90
2018-06-29T01:20:22.505Z,59.70
2018-06-29T01:22:50.924Z,59.10
2018-06-29T01:25:19.362Z,58.70
2018-06-29T01:27:47.824Z,59.10
2018-06-29T01:30:16.303Z,58.70
2018-06-29T01:32:44.767Z,58.70
2018-06-29T01:35:14.045Z,59.30
2018-06-29T01:37:42.464Z,59.20
2018-06-29T01:40:11.160Z,59.20
2018-06-29T01:42:39.785Z,59.30
2018-06-29T01:45:08.524Z,59.20
2018-06-29T01:47:37.525Z,59.30
2018-06-29T01:50:06.681Z,59.60
2018-06-29T01:52:35.160Z,59.20
2018-06-29T01:55:03.722Z,59.40
2018-06-29T01:57:32.152Z,59.50
2018-06-29T02:00:00.605Z,60.00
2018-06-29T02:02:29.015Z,59.60
2018-06-29T02:04:57.437Z,60.00
2018-06-29T02:07:25.853Z,61.00
2018-06-29T02:09:54.268Z,62.30
2018-06-29T02:12:23.415Z,63.00
2018-06-29T02:14:51.868Z,63.30
2018-06-29T02:17:20.293Z,63.70
2018-06-29T02:19:48.784Z,63.50
2018-06-29T02:22:17.197Z,62.90
2018-06-29T02:24:45.992Z,63.20
2018-06-29T02:27:14.953Z,64.40
2018-06-29T02:29:43.382Z,64.30
2018-06-29T02:32:11.935Z,65.30
2018-06-29T02:34:40.349Z,64.30
2018-06-29T02:37:09.229Z,64.00
2018-06-29T02:39:37.685Z,64.60
2018-06-29T02:42:06.189Z,65.80
2018-06-29T02:44:34.697Z,66.50
2018-06-29T02:47:03.361Z,66.10
2018-06-29T02:49:31.813Z,66.10
2018-06-29T02:52:01.046Z,66.50
2018-06-29T02:54:29.462Z,66.50
2018-06-29T02:56:57.945Z,66.50
2018-06-29T02:59:26.377Z,65.50
2018-06-29T03:01:55.109Z,65.90
2018-06-29T03:04:23.536Z,66.80
2018-06-29T03:06:52.541Z,66.70
2018-06-29T03:09:21.010Z,65.80
2018-06-29T03:11:49.526Z,66.30
2018-06-29T03:14:17.944Z,66.70
2018-06-29T03:16:46.400Z,65.60
2018-06-29T03:19:14.834Z,66.10
2018-06-29T03:21:43.256Z,66.70
2018-06-29T03:24:11.721Z,66.80
2018-06-29T03:26:40.791Z,66.20
2018-06-29T03:29:09.905Z,66.50
2018-06-29T03:31:39.229Z,66.00
2018-06-29T03:34:07.687Z,66.40
2018-06-29T03:36:36.165Z,66.60
2018-06-29T03:39:07.030Z,66.30
2018-06-29T03:41:35.697Z,66.20
2018-06-29T03:44:04.968Z,66.40
2018-06-29T03:46:33.348Z,67.10
2018-06-29T03:49:01.846Z,66.10
2018-06-29T03:51:30.852Z,67.10
2018-06-29T03:53:59.361Z,66.30
2018-06-29T03:56:27.893Z,65.80
2018-06-29T03:58:56.325Z,66.80
2018-06-29T04:01:25.649Z,66.60
2018-06-29T04:03:54.886Z,66.00
2018-06-29T04:06:23.328Z,66.10
2018-06-29T04:08:51.780Z,66.60
2018-06-29T04:11:20.232Z,66.00
2018-06-29T04:13:48.648Z,67.30
2018-06-29T04:16:17.549Z,66.60
2018-06-29T04:18:45.974Z,66.80
2018-06-29T04:21:14.522Z,66.90
2018-06-29T04:23:42.945Z,67.00
2018-06-29T04:26:11.383Z,68.00
2018-06-29T04:28:39.792Z,68.00
2018-06-29T04:31:08.217Z,68.00
2018-06-29T04:33:36.653Z,67.30
2018-06-29T04:36:05.102Z,67.90
2018-06-29T04:38:33.546Z,67.60
2018-06-29T04:41:02.504Z,67.80
2018-06-29T04:43:31.033Z,67.70
2018-06-29T04:45:59.524Z,67.20
2018-06-29T04:48:28.828Z,68.10
2018-06-29T04:50:57.253Z,68.10
2018-06-29T04:53:25.790Z,68.10
2018-06-29T04:55:54.234Z,67.80
2018-06-29T04:58:22.705Z,67.70
2018-06-29T05:00:51.654Z,67.90
2018-06-29T05:03:20.073Z,68.60
2018-06-29T05:05:48.516Z,68.50
2018-06-29T05:08:16.937Z,69.50
2018-06-29T05:10:45.479Z,68.90
2018-06-29T05:13:13.916Z,69.80
2018-06-29T05:15:42.357Z,69.20
2018-06-29T05:18:10.910Z,69.80
2018-06-29T05:20:39.311Z,70.00
2018-06-29T05:23:07.877Z,70.30
2018-06-29T05:25:36.361Z,70.30
2018-06-29T05:28:04.892Z,69.90
2018-06-29T05:30:33.336Z,70.10
2018-06-29T05:33:01.809Z,70.00
2018-06-29T05:35:30.756Z,70.00
2018-06-29T05:37:59.894Z,69.70
2018-06-29T05:40:28.400Z,68.70
2018-06-29T05:42:57.393Z,68.60
2018-06-29T05:45:25.828Z,68.90
2018-06-29T05:47:54.349Z,68.00
2018-06-29T05:50:22.745Z,68.10
2018-06-29T05:52:51.936Z,67.60
2018-06-29T05:55:20.361Z,68.10
2018-06-29T05:57:48.797Z,68.10
2018-06-29T06:00:18.098Z,68.00
2018-06-29T06:02:47.239Z,68.00
2018-06-29T06:05:15.803Z,68.00
2018-06-29T06:07:44.881Z,68.80
2018-06-29T06:10:13.401Z,68.70
2018-06-29T06:12:41.853Z,68.50
2018-06-29T06:15:10.305Z,67.90
2018-06-29T06:17:38.708Z,67.60
2018-06-29T06:20:11.527Z,68.00
2018-06-29T06:22:40.322Z,68.00
2018-06-29T06:25:10.377Z,67.00
2018-06-29T06:27:39.566Z,66.60
2018-06-29T06:30:09.347Z,66.30
2018-06-29T06:32:37.946Z,65.70
2018-06-29T06:35:08.942Z,65.70
2018-06-29T06:37:37.704Z,66.40
2018-06-29T06:40:06.777Z,65.50
2018-06-29T06:42:35.201Z,65.40
2018-06-29T06:45:08.050Z,64.90
2018-06-29T06:47:36.608Z,65.30
2018-06-29T06:50:05.228Z,64.70
2018-06-29T06:52:38.032Z,65.10
2018-06-29T06:55:06.513Z,63.80
2018-06-29T06:57:35.526Z,64.40
2018-06-29T07:00:11.044Z,62.80
2018-06-29T07:02:39.530Z,62.30
2018-06-29T07:05:08.027Z,62.90
2018-06-29T07:07:36.750Z,61.40
2018-06-29T07:23:05.493Z,61.00
2018-06-29T07:25:34.060Z,61.50
2018-06-29T07:28:02.509Z,61.10
2018-06-29T07:30:31.089Z,59.40
2018-06-29T07:32:59.505Z,58.90
2018-06-29T07:35:28.614Z,58.00
2018-06-29T07:37:57.538Z,56.20
2018-06-29T07:40:26.592Z,56.20
2018-06-29T07:42:55.144Z,55.90
2018-06-29T07:45:24.242Z,56.20
2018-06-29T07:50:21.442Z,55.50
2018-06-29T07:52:51.330Z,53.80
2018-06-29T07:55:20.045Z,53.90
2018-06-29T07:57:48.513Z,53.50
2018-06-29T08:00:17.997Z,53.20
2018-06-29T08:02:47.383Z,53.80
2018-06-29T08:05:15.955Z,53.10
2018-06-29T08:07:44.872Z,51.20
2018-06-29T08:10:13.313Z,51.40
2018-06-29T08:12:42.446Z,50.50
2018-06-29T08:15:10.877Z,51.10
2018-06-29T08:17:39.916Z,51.70
2018-06-29T08:20:08.470Z,50.10
2018-06-29T08:22:36.952Z,49.90
2018-06-29T08:25:15.094Z,49.50
2018-06-29T08:27:44.205Z,48.80
2018-06-29T08:30:14.335Z,49.30
2018-06-29T08:32:42.831Z,47.70
2018-06-29T08:35:11.677Z,46.10
2018-06-29T08:37:40.721Z,47.20
2018-06-29T08:40:10.066Z,46.20
2018-06-29T08:42:38.628Z,45.90
2018-06-29T08:45:08.067Z,46.30
2018-06-29T08:47:37.817Z,45.90
2018-06-29T08:50:06.475Z,45.50
2018-06-29T08:52:35.793Z,45.90
2018-06-29T08:55:08.898Z,45.60
2018-06-29T08:57:37.247Z,44.60
2018-06-29T09:00:06.890Z,44.70
2018-06-29T09:02:35.983Z,43.00
2018-06-29T09:05:04.543Z,43.90
2018-06-29T09:07:33.278Z,43.40
2018-06-29T09:10:02.736Z,44.00
2018-06-29T09:12:31.173Z,43.50
2018-06-29T09:14:59.754Z,42.70
2018-06-29T09:17:28.240Z,43.40
2018-06-29T09:19:56.669Z,42.20
2018-06-29T09:22:25.820Z,41.30
2018-06-29T09:24:54.297Z,40.80
2018-06-29T09:27:22.890Z,42.90
2018-06-29T09:29:51.381Z,41.80
2018-06-29T09:32:19.872Z,40.10
2018-06-29T09:34:48.300Z,41.40
2018-06-29T09:37:17.550Z,41.40
2018-06-29T09:39:46.006Z,39.90
2018-06-29T09:42:14.560Z,39.70
2018-06-29T09:44:42.978Z,40.50
2018-06-29T09:47:11.398Z,40.00
2018-06-29T09:49:40.443Z,39.60
2018-06-29T09:52:08.974Z,40.30
2018-06-29T09:54:37.401Z,38.80
2018-06-29T09:57:06.012Z,37.90
2018-06-29T09:59:34.477Z,39.40
2018-06-29T10:02:02.998Z,38.70
2018-06-29T10:04:31.417Z,38.00
2018-06-29T10:06:59.997Z,38.20
2018-06-29T10:09:28.428Z,37.90
2018-06-29T10:11:57.032Z,38.60
2018-06-29T10:14:25.532Z,38.30
2018-06-29T10:16:54.094Z,38.10
2018-06-29T10:19:23.117Z,37.60
2018-06-29T10:21:51.549Z,37.80
2018-06-29T10:24:19.980Z,38.60
2018-06-29T10:26:48.437Z,36.40
2018-06-29T10:29:17.065Z,37.30
2018-06-29T10:31:45.757Z,35.80
2018-06-29T10:34:14.477Z,35.70
2018-06-29T10:36:43.071Z,36.00
2018-06-29T10:39:14.005Z,36.40
2018-06-29T10:41:43.189Z,34.90
2018-06-29T10:44:12.624Z,37.30
2018-06-29T10:46:41.920Z,36.30
2018-06-29T10:49:10.380Z,33.50
2018-06-29T10:51:38.880Z,33.40
2018-06-29T10:54:07.901Z,32.90
2018-06-29T10:56:36.381Z,33.40
2018-06-29T10:59:04.822Z,35.00
2018-06-29T11:01:33.231Z,33.10
2018-06-29T11:04:01.780Z,32.80
2018-06-29T11:06:30.281Z,32.90
2018-06-29T11:08:59.157Z,32.90
2018-06-29T11:11:27.641Z,33.20
2018-06-29T11:13:56.733Z,32.30
2018-06-29T11:16:25.226Z,30.90
2018-06-29T11:18:53.761Z,31.90
2018-06-29T11:21:22.189Z,31.90
2018-06-29T11:23:50.644Z,32.30
2018-06-29T11:26:19.063Z,32.00
2018-06-29T11:28:47.517Z,32.20
2018-06-29T11:31:15.956Z,30.40
2018-06-29T11:33:44.367Z,30.50
2018-06-29T11:36:12.869Z,30.70
2018-06-29T11:38:41.285Z,31.40
2018-06-29T11:41:09.797Z,32.60
2018-06-29T11:43:38.256Z,32.30
2018-06-29T11:46:06.725Z,32.20
2018-06-29T11:48:35.193Z,33.10
2018-06-29T11:51:03.741Z,31.00
2018-06-29T11:53:32.745Z,31.10
2018-06-29T11:56:01.224Z,31.50
2018-06-29T11:58:29.714Z,30.60
2018-06-29T12:03:26.492Z,29.70
2018-06-29T12:05:54.949Z,29.50
2018-06-29T12:08:23.393Z,29.80
2018-06-29T12:10:52.447Z,28.70
2018-06-29T12:13:21.015Z,29.10
2018-06-29T12:15:49.457Z,29.00
2018-06-29T12:18:18.592Z,28.10
2018-06-29T12:20:47.091Z,28.60
2018-06-29T12:23:15.510Z,28.70
2018-06-29T12:25:44.023Z,29.00
2018-06-29T12:28:12.697Z,29.30
2018-06-29T12:30:41.131Z,28.60
2018-06-29T12:33:09.581Z,29.30
2018-06-29T12:35:38.048Z,29.30
2018-06-29T12:38:06.603Z,29.00
2018-06-29T12:40:35.193Z,28.80
2018-06-29T12:43:03.810Z,29.10
2018-06-29T12:45:32.395Z,28.90
2018-06-29T12:48:00.820Z,28.20
2018-06-29T12:50:29.244Z,27.80
2018-06-29T12:52:57.685Z,30.00
2018-06-29T12:55:26.242Z,29.80
2018-06-29T12:57:54.800Z,30.30
2018-06-29T13:00:23.236Z,29.70
2018-06-29T13:15:51.694Z,30.40
2018-06-29T13:18:21.023Z,30.70
2018-06-29T13:20:51.689Z,30.70
2018-06-29T13:23:20.833Z,30.40
2018-06-29T13:25:49.313Z,31.80
2018-06-29T13:28:17.873Z,31.30
2018-06-29T13:30:46.359Z,31.00
2018-06-29T13:33:14.730Z,31.90
2018-06-29T13:35:43.257Z,31.60
2018-06-29T13:38:12.274Z,31.30
2018-06-29T13:40:40.718Z,32.50
2018-06-29T13:43:09.510Z,32.60
2018-06-29T13:45:37.961Z,33.50
2018-06-29T13:48:06.488Z,33.40
2018-06-29T13:50:35.020Z,32.30
2018-06-29T13:53:03.996Z,32.50
2018-06-29T13:55:32.989Z,32.10
2018-06-29T13:58:01.982Z,34.00
2018-06-29T14:00:30.456Z,33.40
2018-06-29T14:02:58.915Z,32.50
2018-06-29T14:05:27.330Z,32.80
2018-06-29T14:07:55.817Z,32.10
2018-06-29T14:10:24.289Z,31.20
2018-06-29T14:12:52.751Z,32.20
2018-06-29T14:15:21.878Z,32.60
2018-06-29T14:17:50.352Z,33.60
2018-06-29T14:20:18.762Z,33.30
2018-06-29T14:22:47.236Z,33.70
2018-06-29T14:25:15.928Z,33.50
2018-06-29T14:27:44.372Z,33.60
2018-06-29T14:30:12.817Z,32.30
2018-06-29T14:32:41.365Z,32.50
2018-06-29T14:35:09.877Z,33.30
2018-06-29T14:37:38.328Z,33.80
2018-06-29T14:40:06.869Z,32.90
2018-06-29T14:42:35.723Z,33.60
2018-06-29T14:45:04.269Z,34.10
2018-06-29T14:47:32.841Z,35.10
2018-06-29T14:50:01.263Z,34.70
2018-06-29T14:52:29.758Z,35.40
2018-06-29T14:54:58.179Z,35.30
2018-06-29T14:57:26.647Z,36.00
2018-06-29T14:59:55.845Z,36.30
2018-06-29T15:02:24.301Z,36.70
2018-06-29T15:04:52.821Z,36.20
2018-06-29T15:07:21.296Z,36.40
2018-06-29T15:09:50.021Z,36.50
2018-06-29T15:12:18.496Z,37.00
2018-06-29T15:14:46.964Z,37.00
2018-06-29T15:17:15.446Z,37.30
2018-06-29T15:19:48.465Z,37.50
2018-06-29T15:22:17.085Z,37.30
2018-06-29T15:24:51.748Z,37.60
2018-06-29T15:27:20.262Z,37.80
2018-06-29T15:29:48.760Z,38.30
2018-06-29T15:32:18.352Z,39.10
2018-06-29T15:34:48.080Z,38.50
2018-06-29T15:37:16.572Z,39.50
2018-06-29T15:39:45.056Z,38.30
2018-06-29T15:42:14.406Z,38.40
2018-06-29T15:44:42.844Z,38.70
2018-06-29T15:47:11.481Z,38.20
2018-06-29T15:49:40.401Z,39.20
2018-06-29T15:52:09.557Z,39.10
2018-06-29T15:54:38.833Z,39.50
2018-06-29T15:57:07.360Z,39.40
2018-06-29T15:59:36.066Z,39.10
2018-06-29T16:02:08.939Z,39.40
2018-06-29T16:04:37.451Z,38.40
2018-06-29T16:07:07.076Z,38.30
2018-06-29T16:09:36.460Z,38.00
2018-06-29T16:12:05.687Z,38.30
2018-06-29T16:14:34.764Z,38.00
2018-06-29T16:17:03.228Z,38.20
2018-06-29T16:19:32.180Z,38.50
2018-06-29T16:24:28.888Z,37.10
2018-06-29T16:39:57.397Z,37.20
2018-06-29T16:42:25.953Z,38.50
2018-06-29T16:44:54.461Z,38.60
2018-06-29T16:47:23.738Z,38.30
2018-06-29T16:49:52.945Z,37.80
2018-06-29T16:52:22.034Z,37.90
2018-06-29T16:54:54.804Z,38.40
2018-06-29T16:57:23.325Z,38.50
2018-06-29T16:59:52.333Z,38.50
2018-06-29T17:02:21.975Z,38.80
2018-06-29T17:04:52.608Z,39.20
2018-06-29T17:07:25.461Z,39.70
2018-06-29T17:09:54.017Z,40.30
2018-06-29T17:12:23.101Z,39.90
2018-06-29T17:14:51.536Z,39.60
2018-06-29T17:17:20.590Z,39.90
2018-06-29T17:19:49.655Z,40.70
2018-06-29T17:22:18.124Z,41.40
2018-06-29T17:24:46.625Z,41.10
2018-06-29T17:27:20.371Z,41.60
2018-06-29T17:29:48.846Z,42.30
2018-06-29T17:32:17.268Z,42.50
2018-06-29T17:34:45.774Z,43.40
2018-06-29T17:37:14.238Z,44.50
2018-06-29T17:39:42.721Z,44.30
2018-06-29T17:42:11.217Z,44.50
2018-06-29T17:44:40.358Z,44.80
2018-06-29T17:47:08.873Z,44.60
2018-06-29T17:49:37.331Z,45.20
2018-06-29T17:52:05.945Z,44.70
2018-06-29T17:54:34.582Z,44.30
2018-06-29T17:57:03.060Z,44.50
2018-06-29T17:59:31.525Z,44.20
2018-06-29T18:01:59.989Z,44.30
2018-06-29T18:04:28.435Z,45.10
2018-06-29T18:06:57.787Z,44.90
2018-06-29T18:09:26.979Z,44.30
2018-06-29T18:11:55.574Z,45.00
2018-06-29T18:14:24.018Z,45.40
2018-06-29T18:16:53.032Z,45.50
2018-06-29T18:19:21.528Z,45.80
2018-06-29T18:21:50.657Z,46.70
2018-06-29T18:24:19.273Z,46.80
2018-06-29T18:26:48.011Z,47.60
2018-06-29T18:29:16.837Z,47.80
2018-06-29T18:31:45.599Z,47.50
2018-06-29T18:34:14.397Z,47.50
2018-06-29T18:36:43.267Z,47.80
2018-06-29T18:39:14.989Z,47.60
2018-06-29T18:41:44.606Z,47.50
2018-06-29T18:44:13.799Z,47.60
2018-06-29T18:46:42.654Z,48.00
2018-06-29T18:49:11.497Z,47.90
2018-06-29T18:51:40.347Z,47.80
2018-06-29T18:54:10.334Z,48.50
2018-06-29T18:56:40.342Z,48.70
2018-06-29T18:59:09.399Z,48.60
2018-06-29T19:01:38.987Z,48.50
2018-06-29T19:04:08.113Z,49.20
2018-06-29T19:06:36.818Z,49.00
2018-06-29T19:09:08.009Z,49.60
2018-06-29T19:11:37.023Z,48.90
2018-06-29T19:14:06.570Z,48.70
2018-06-29T19:16:35.361Z,49.30
2018-06-29T19:19:04.195Z,49.50
2018-06-29T19:21:32.956Z,49.70
2018-06-29T19:24:02.286Z,49.90
2018-06-29T19:26:31.103Z,49.90
2018-06-29T19:29:00.455Z,50.10
2018-06-29T19:31:29.345Z,50.30
2018-06-29T19:33:58.113Z,50.60
2018-06-29T19:36:26.942Z,50.60
2018-06-29T19:38:55.856Z,51.30
2018-06-29T19:41:24.667Z,51.70
2018-06-29T19:43:53.465Z,52.00
2018-06-29T19:46:22.329Z,52.20
2018-06-29T19:48:51.143Z,51.90
2018-06-29T19:51:20.383Z,52.30
2018-06-29T19:53:49.457Z,52.70
2018-06-29T19:56:18.138Z,52.30
2018-06-29T19:58:46.722Z,52.40
2018-06-29T20:01:15.658Z,52.70
2018-06-29T20:13:34.416Z,53.20
2018-06-29T20:16:02.902Z,55.50
2018-06-29T20:18:31.704Z,55.30
2018-06-29T20:21:00.182Z,54.80
2018-06-29T20:23:28.662Z,54.60
2018-06-29T20:25:57.965Z,54.70
2018-06-29T20:28:26.417Z,54.50
2018-06-29T20:30:54.860Z,54.80
2018-06-29T20:33:23.363Z,54.90
2018-06-29T20:35:51.810Z,54.90
2018-06-29T20:38:20.444Z,55.00
2018-06-29T20:40:49.474Z,55.10
2018-06-29T20:43:17.973Z,54.70
2018-06-29T20:45:46.543Z,55.10
2018-06-29T20:48:15.014Z,55.40
2018-06-29T20:50:43.496Z,55.40
2018-06-29T20:53:11.971Z,55.40
2018-06-29T20:55:40.509Z,54.60
2018-06-29T20:58:09.889Z,54.50
2018-06-29T21:00:38.370Z,54.70
2018-06-29T21:03:06.891Z,54.40
2018-06-29T21:05:35.381Z,54.90
2018-06-29T21:08:04.838Z,54.60
2018-06-29T21:10:33.334Z,54.70
2018-06-29T21:13:08.541Z,54.20
2018-06-29T21:15:37.128Z,54.40
2018-06-29T21:18:05.602Z,54.90
2018-06-29T21:20:34.784Z,53.90
2018-06-29T21:23:03.304Z,54.20
2018-06-29T21:25:31.895Z,54.20
2018-06-29T21:28:00.462Z,53.50
2018-06-29T21:30:28.938Z,53.50
2018-06-29T21:32:57.836Z,54.00
2018-06-29T21:35:27.436Z,54.00
2018-06-29T21:37:55.925Z,54.60
2018-06-29T21:40:24.891Z,54.70
2018-06-29T21:42:53.452Z,54.90
2018-06-29T21:45:21.916Z,54.70
2018-06-29T21:47:50.397Z,54.90
2018-06-29T21:50:19.473Z,54.90
2018-06-29T21:52:48.570Z,55.00
2018-06-29T21:57:45.274Z,55.80
2018-06-29T22:00:14.024Z,56.00
2018-06-29T22:02:42.533Z,56.00
2018-06-29T22:05:11.774Z,56.10
2018-06-29T22:07:40.665Z,56.70
2018-06-29T22:10:09.717Z,56.40
2018-06-29T22:12:38.227Z,56.60
2018-06-29T22:15:10.977Z,57.00
2018-06-29T22:17:40.008Z,56.90
2018-06-29T22:20:08.461Z,57.30
2018-06-29T22:22:36.921Z,57.50
2018-06-29T22:25:07.431Z,57.30
2018-06-29T22:27:36.434Z,57.40
2018-06-29T22:30:05.300Z,58.00
2018-06-29T22:32:33.795Z,58.10
2018-06-29T22:35:02.302Z,58.20
2018-06-29T22:37:30.727Z,58.40
2018-06-29T22:39:59.182Z,59.20
2018-06-29T22:42:27.637Z,59.20
2018-06-29T22:44:56.170Z,59.50
2018-06-29T22:47:24.977Z,59.40
2018-06-29T22:49:53.481Z,59.10
2018-06-29T22:52:22.710Z,59.20
2018-06-29T22:54:51.715Z,59.60
2018-06-29T22:57:20.228Z,60.10
2018-06-29T22:59:49.126Z,59.90
2018-06-29T23:02:17.654Z,60.80
2018-06-29T23:04:46.105Z,60.30
2018-06-29T23:07:14.926Z,60.80
2018-06-29T23:09:43.411Z,60.90
2018-06-29T23:12:12.068Z,61.10
2018-06-29T23:14:40.637Z,61.00
2018-06-29T23:17:09.186Z,61.00
2018-06-29T23:19:38.014Z,61.20
2018-06-29T23:22:06.900Z,61.80
2018-06-29T23:24:35.326Z,61.50
2018-06-29T23:27:03.862Z,61.50
2018-06-29T23:29:32.379Z,61.60
2018-06-29T23:32:01.115Z,62.30
2018-06-29T23:34:29.703Z,62.10
2018-06-29T23:36:58.121Z,62.00
2018-06-29T23:39:26.729Z,62.30
2018-06-29T23:41:55.241Z,62.50
2018-06-29T23:44:23.764Z,62.90
2018-06-29T23:46:52.272Z,62.90
2018-06-29T23:49:20.734Z,62.90
2018-06-29T23:51:49.369Z,63.30
2018-06-29T23:54:17.800Z,63.60
2018-06-29T23:56:46.337Z,63.70
2018-06-29T23:59:14.852Z,64.00
